createdAt,value
2019-03-24T00:01:47.742Z,3.50
2019-03-24T00:04:26.669Z,4.00
2019-03-24T00:06:56.649Z,3.57
2019-03-24T00:09:35.531Z,4.50
2019-03-24T00:12:09.578Z,3.92
2019-03-24T00:14:39.470Z,3.37
2019-03-24T00:17:09.433Z,3.80
2019-03-24T00:19:42.240Z,3.70
2019-03-24T00:22:15.082Z,4.73
2019-03-24T00:24:44.839Z,4.00
2019-03-24T00:27:28.728Z,3.60
2019-03-24T00:29:58.614Z,3.43
2019-03-24T00:32:28.491Z,3.70
2019-03-24T00:34:58.490Z,3.67
2019-03-24T00:37:28.330Z,4.70
2019-03-24T00:39:58.286Z,3.53
2019-03-24T00:42:28.216Z,3.43
2019-03-24T00:44:58.100Z,4.00
2019-03-24T00:47:28.003Z,3.47
2019-03-24T00:49:57.994Z,3.60
2019-03-24T00:52:27.848Z,4.17
2019-03-24T00:54:57.846Z,4.17
2019-03-24T00:57:27.708Z,3.80
2019-03-24T00:59:57.616Z,3.57
2019-03-24T01:02:27.526Z,3.40
2019-03-24T01:05:02.748Z,3.37
2019-03-24T01:07:32.745Z,3.37
2019-03-24T01:10:02.761Z,3.60
2019-03-24T01:12:37.815Z,3.97
2019-03-24T01:15:08.735Z,3.37
2019-03-24T01:18:02.573Z,3.57
2019-03-24T01:20:50.632Z,3.53
2019-03-24T01:23:20.561Z,3.20
2019-03-24T01:25:58.231Z,3.07
2019-03-24T01:28:40.077Z,3.40
2019-03-24T01:31:09.993Z,3.67
2019-03-24T01:33:39.805Z,3.87
2019-03-24T01:36:09.761Z,3.53
2019-03-24T01:38:39.757Z,3.50
2019-03-24T01:41:11.609Z,3.07
2019-03-24T01:43:41.535Z,3.07
2019-03-24T01:46:17.229Z,2.77
2019-03-24T01:48:47.097Z,3.17
2019-03-24T01:51:31.227Z,3.40
2019-03-24T01:54:09.250Z,3.17
2019-03-24T01:56:39.061Z,3.20
2019-03-24T01:59:08.907Z,3.37
2019-03-24T02:01:38.809Z,3.93
2019-03-24T02:04:08.838Z,3.33
2019-03-24T02:06:38.765Z,3.40
2019-03-24T02:09:14.694Z,2.80
2019-03-24T02:11:52.863Z,3.33
2019-03-24T02:14:22.890Z,3.27
2019-03-24T02:17:00.884Z,3.23
2019-03-24T02:19:30.732Z,3.40
2019-03-24T02:22:00.685Z,3.57
2019-03-24T02:24:30.644Z,3.53
2019-03-24T02:27:00.890Z,3.40
2019-03-24T02:29:30.792Z,2.98
2019-03-24T02:32:00.769Z,3.50
2019-03-24T02:34:39.732Z,3.60
2019-03-24T02:37:09.633Z,3.00
2019-03-24T02:39:39.525Z,3.20
2019-03-24T02:42:11.207Z,3.90
2019-03-24T02:44:44.253Z,3.70
2019-03-24T02:47:14.175Z,3.30
2019-03-24T02:49:44.129Z,3.40
2019-03-24T02:52:20.183Z,3.20
2019-03-24T02:54:51.709Z,3.60
2019-03-24T02:57:33.526Z,3.17
2019-03-24T03:00:03.422Z,3.40
2019-03-24T03:02:33.317Z,4.27
2019-03-24T03:05:03.314Z,3.53
2019-03-24T03:07:33.131Z,3.97
2019-03-24T03:10:03.043Z,3.77
2019-03-24T03:12:33.067Z,3.30
2019-03-24T03:15:07.171Z,3.63
2019-03-24T03:17:38.158Z,3.60
2019-03-24T03:20:22.465Z,3.47
2019-03-24T03:22:52.290Z,3.87
2019-03-24T03:25:22.218Z,4.00
2019-03-24T03:27:52.160Z,4.13
2019-03-24T03:30:22.018Z,3.80
2019-03-24T03:32:51.978Z,4.30
2019-03-24T03:35:21.944Z,4.63
2019-03-24T03:37:51.822Z,5.07
2019-03-24T03:40:22.213Z,4.60
2019-03-24T03:42:58.331Z,4.00
2019-03-24T03:45:43.309Z,4.30
2019-03-24T03:48:13.166Z,3.93
2019-03-24T03:50:48.820Z,3.63
2019-03-24T03:53:18.799Z,3.97
2019-03-24T03:55:48.633Z,4.07
2019-03-24T03:58:18.565Z,3.80
2019-03-24T04:00:48.863Z,4.27
2019-03-24T04:03:18.873Z,4.40
2019-03-24T04:05:48.706Z,3.50
2019-03-24T04:08:18.830Z,3.90
2019-03-24T04:11:09.100Z,3.57
2019-03-24T04:13:38.983Z,4.20
2019-03-24T04:16:08.895Z,4.57
2019-03-24T04:18:38.803Z,4.33
2019-03-24T04:21:08.763Z,4.27
2019-03-24T04:23:38.600Z,4.17
2019-03-24T04:26:14.289Z,4.10
2019-03-24T04:28:44.269Z,4.33
2019-03-24T04:31:14.119Z,4.30
2019-03-24T04:33:44.011Z,4.07
2019-03-24T04:36:14.951Z,4.37
2019-03-24T04:38:45.892Z,4.77
2019-03-24T04:41:15.835Z,4.67
2019-03-24T04:43:45.785Z,4.00
2019-03-24T04:46:15.642Z,4.47
2019-03-24T04:48:45.612Z,4.23
2019-03-24T04:51:15.540Z,4.43
2019-03-24T04:53:45.410Z,5.00
2019-03-24T04:56:15.326Z,4.10
2019-03-24T04:58:45.284Z,4.53
2019-03-24T05:01:15.196Z,4.40
2019-03-24T05:03:45.049Z,3.87
2019-03-24T05:06:15.938Z,4.30
2019-03-24T05:08:46.594Z,3.63
2019-03-24T05:11:16.471Z,4.20
2019-03-24T05:13:46.396Z,4.40
2019-03-24T05:16:16.328Z,4.77
2019-03-24T05:18:46.252Z,4.73
2019-03-24T05:21:16.123Z,4.47
2019-03-24T05:23:46.195Z,4.47
2019-03-24T05:26:16.411Z,4.90
2019-03-24T05:28:46.262Z,4.50
2019-03-24T05:31:16.260Z,4.40
2019-03-24T05:33:46.192Z,4.83
2019-03-24T05:36:16.008Z,5.10
2019-03-24T05:38:45.913Z,4.80
2019-03-24T05:41:16.154Z,4.70
2019-03-24T05:43:48.272Z,4.40
2019-03-24T05:46:18.115Z,4.40
2019-03-24T05:48:48.112Z,4.40
2019-03-24T05:51:17.952Z,4.50
2019-03-24T05:53:48.052Z,4.37
2019-03-24T05:56:17.857Z,4.67
2019-03-24T05:58:47.854Z,4.50
2019-03-24T06:01:17.651Z,5.03
2019-03-24T06:03:47.539Z,4.30
2019-03-24T06:06:17.545Z,4.50
2019-03-24T06:08:48.626Z,4.43
2019-03-24T06:11:18.499Z,4.27
2019-03-24T06:13:48.507Z,5.07
2019-03-24T06:16:18.343Z,4.97
2019-03-24T06:18:48.298Z,4.77
2019-03-24T06:21:19.077Z,4.60
2019-03-24T06:23:49.001Z,4.83
2019-03-24T06:26:19.271Z,4.93
2019-03-24T06:28:49.611Z,4.60
2019-03-24T06:31:20.715Z,4.60
2019-03-24T06:33:50.640Z,5.13
2019-03-24T06:36:20.589Z,5.03
2019-03-24T06:38:50.447Z,5.03
2019-03-24T06:41:20.367Z,5.03
2019-03-24T06:43:51.175Z,5.63
2019-03-24T06:46:21.047Z,5.33
2019-03-24T06:48:51.741Z,5.93
2019-03-24T06:51:21.745Z,5.40
2019-03-24T06:53:51.629Z,5.50
2019-03-24T06:56:21.502Z,5.20
2019-03-24T06:58:51.475Z,4.80
2019-03-24T07:01:21.356Z,4.92
2019-03-24T07:03:51.249Z,5.67
2019-03-24T07:06:26.971Z,4.50
2019-03-24T07:09:07.332Z,5.50
2019-03-24T07:11:41.544Z,5.77
2019-03-24T07:14:11.386Z,5.63
2019-03-24T07:16:41.314Z,5.00
2019-03-24T07:19:11.822Z,5.77
2019-03-24T07:21:41.610Z,5.50
2019-03-24T07:24:11.482Z,5.60
2019-03-24T07:27:05.205Z,5.73
2019-03-24T07:29:35.128Z,6.23
2019-03-24T07:32:07.111Z,5.73
2019-03-24T07:34:37.049Z,5.40
2019-03-24T07:37:08.112Z,4.83
2019-03-24T07:39:39.303Z,5.53
2019-03-24T07:42:09.175Z,5.30
2019-03-24T07:44:41.107Z,5.60
2019-03-24T07:47:14.197Z,4.70
2019-03-24T07:49:46.282Z,5.10
2019-03-24T07:52:16.194Z,6.13
2019-03-24T07:54:47.137Z,5.80
2019-03-24T07:57:30.762Z,4.97
2019-03-24T08:00:30.442Z,4.83
2019-03-24T08:03:00.571Z,4.60
2019-03-24T08:05:30.407Z,4.37
2019-03-24T08:08:06.012Z,4.80
2019-03-24T08:10:40.896Z,4.30
2019-03-24T08:13:10.795Z,5.00
2019-03-24T08:15:40.794Z,4.10
2019-03-24T08:18:29.470Z,4.10
2019-03-24T08:20:52.517Z,4.10
2019-03-24T08:23:31.375Z,4.17
2019-03-24T08:26:04.179Z,4.57
2019-03-24T08:28:34.263Z,4.53
2019-03-24T08:31:04.892Z,4.07
2019-03-24T08:33:36.877Z,4.47
2019-03-24T08:36:06.722Z,4.77
2019-03-24T08:38:36.603Z,4.10
2019-03-24T08:41:08.593Z,4.37
2019-03-24T08:43:38.531Z,4.37
2019-03-24T08:46:08.419Z,4.57
2019-03-24T08:48:41.114Z,3.67
2019-03-24T08:51:17.750Z,3.63
2019-03-24T08:53:47.627Z,3.27
2019-03-24T08:56:18.684Z,3.27
2019-03-24T08:58:48.616Z,3.23
2019-03-24T09:01:18.603Z,2.90
2019-03-24T09:03:48.479Z,2.50
2019-03-24T09:06:19.217Z,3.17
2019-03-24T09:08:49.245Z,3.10
2019-03-24T09:11:30.659Z,3.10
2019-03-24T09:13:51.805Z,2.70
2019-03-24T09:16:22.179Z,3.27
2019-03-24T09:18:53.102Z,2.40
2019-03-24T09:21:25.108Z,2.53
2019-03-24T09:23:55.231Z,2.70
2019-03-24T09:26:30.849Z,2.77
2019-03-24T09:29:02.561Z,3.03
2019-03-24T09:31:32.281Z,3.07
2019-03-24T09:34:04.759Z,3.17
2019-03-24T09:36:34.713Z,3.07
2019-03-24T09:39:36.094Z,2.93
2019-03-24T09:42:08.798Z,2.80
2019-03-24T09:44:40.845Z,2.17
2019-03-24T09:47:11.099Z,2.10
2019-03-24T09:49:41.870Z,2.47
2019-03-24T09:52:11.770Z,2.13
2019-03-24T09:54:41.724Z,1.97
2019-03-24T09:57:11.608Z,2.00
2019-03-24T09:59:41.556Z,2.43
2019-03-24T10:02:11.493Z,2.10
2019-03-24T10:04:41.410Z,2.00
2019-03-24T10:07:11.246Z,2.20
2019-03-24T10:09:41.162Z,2.20
2019-03-24T10:12:18.893Z,2.30
2019-03-24T10:14:48.750Z,2.70
2019-03-24T10:17:19.183Z,2.00
2019-03-24T10:19:50.329Z,2.30
2019-03-24T10:22:20.138Z,2.47
2019-03-24T10:24:57.529Z,2.23
2019-03-24T10:27:27.359Z,1.97
2019-03-24T10:29:58.135Z,3.10
2019-03-24T10:32:27.908Z,2.00
2019-03-24T10:35:00.895Z,2.17
2019-03-24T10:37:30.775Z,2.00
2019-03-24T10:40:01.909Z,2.17
2019-03-24T10:42:31.894Z,2.53
2019-03-24T10:45:01.719Z,2.20
2019-03-24T10:47:31.613Z,2.43
2019-03-24T10:50:01.595Z,2.33
2019-03-24T10:52:31.427Z,2.13
2019-03-24T10:55:23.553Z,3.00
2019-03-24T10:58:06.636Z,2.50
2019-03-24T11:00:44.329Z,1.80
2019-03-24T11:03:14.128Z,2.40
2019-03-24T11:05:44.021Z,2.17
2019-03-24T11:08:14.000Z,1.90
2019-03-24T11:10:46.861Z,2.30
2019-03-24T11:13:24.817Z,2.27
2019-03-24T11:15:54.791Z,2.10
2019-03-24T11:18:24.680Z,2.30
2019-03-24T11:20:56.639Z,2.20
2019-03-24T11:23:26.581Z,2.50
2019-03-24T11:25:56.476Z,2.17
2019-03-24T11:28:26.406Z,2.50
2019-03-24T11:30:58.427Z,2.20
2019-03-24T11:33:29.645Z,2.10
2019-03-24T11:36:04.759Z,1.90
2019-03-24T11:38:34.731Z,2.30
2019-03-24T11:41:04.561Z,1.87
2019-03-24T11:43:34.489Z,2.27
2019-03-24T11:46:04.596Z,1.97
2019-03-24T11:48:38.749Z,1.90
2019-03-24T11:51:10.551Z,1.87
2019-03-24T11:53:42.476Z,2.00
2019-03-24T11:56:12.264Z,2.03
2019-03-24T11:58:42.349Z,2.17
2019-03-24T12:01:12.564Z,2.00
2019-03-24T12:03:43.322Z,1.80
2019-03-24T12:06:18.557Z,2.00
2019-03-24T12:08:48.419Z,2.00
2019-03-24T12:11:18.293Z,1.97
2019-03-24T12:13:48.293Z,2.10
2019-03-24T12:16:18.128Z,1.80
2019-03-24T12:18:48.038Z,2.13
2019-03-24T12:21:18.027Z,2.10
2019-03-24T12:23:47.894Z,2.23
2019-03-24T12:26:17.872Z,2.20
2019-03-24T12:28:49.032Z,1.60
2019-03-24T12:31:18.939Z,1.80
2019-03-24T12:33:48.791Z,1.93
2019-03-24T12:36:20.860Z,1.63
2019-03-24T12:38:58.826Z,1.87
2019-03-24T12:41:28.904Z,2.10
2019-03-24T12:43:59.908Z,2.50
2019-03-24T12:46:29.930Z,2.50
2019-03-24T12:49:01.829Z,2.53
2019-03-24T12:51:31.694Z,2.20
2019-03-24T12:54:07.407Z,2.40
2019-03-24T12:56:37.304Z,2.33
2019-03-24T12:59:08.091Z,2.30
2019-03-24T13:01:42.099Z,2.13
2019-03-24T13:04:11.959Z,2.42
2019-03-24T13:06:41.915Z,2.13
2019-03-24T13:09:11.831Z,1.90
2019-03-24T13:11:41.669Z,2.13
2019-03-24T13:14:23.571Z,2.30
2019-03-24T13:16:54.855Z,2.30
2019-03-24T13:19:30.679Z,2.17
2019-03-24T13:22:00.684Z,2.13
2019-03-24T13:24:32.533Z,2.10
2019-03-24T13:27:05.545Z,1.93
2019-03-24T13:29:36.532Z,2.20
2019-03-24T13:32:06.386Z,1.80
2019-03-24T13:34:36.301Z,2.27
2019-03-24T13:37:06.290Z,2.12
2019-03-24T13:39:39.425Z,2.83
2019-03-24T13:42:09.328Z,2.03
2019-03-24T13:44:39.347Z,1.67
2019-03-24T13:47:09.165Z,2.03
2019-03-24T13:49:39.122Z,1.63
2019-03-24T13:52:09.041Z,2.03
2019-03-24T13:54:38.915Z,2.20
2019-03-24T13:57:08.886Z,2.20
2019-03-24T13:59:38.819Z,1.53
2019-03-24T14:02:10.734Z,1.80
2019-03-24T14:04:40.637Z,2.10
2019-03-24T14:07:10.627Z,1.70
2019-03-24T14:09:40.444Z,2.60
2019-03-24T14:12:10.420Z,2.30
2019-03-24T14:14:40.394Z,2.60
2019-03-24T14:17:16.382Z,2.50
2019-03-24T14:19:46.303Z,2.13
2019-03-24T14:22:16.246Z,2.27
2019-03-24T14:24:46.095Z,2.10
2019-03-24T14:27:16.016Z,2.30
2019-03-24T14:30:03.302Z,2.20
2019-03-24T14:32:50.362Z,2.70
2019-03-24T14:35:26.346Z,2.37
2019-03-24T14:37:57.990Z,2.50
2019-03-24T14:40:27.780Z,2.03
2019-03-24T14:43:05.608Z,2.17
2019-03-24T14:45:35.425Z,2.10
2019-03-24T14:48:16.063Z,1.83
2019-03-24T14:50:54.801Z,1.83
2019-03-24T14:53:40.459Z,1.97
2019-03-24T14:56:36.188Z,2.33
2019-03-24T14:59:08.125Z,1.97
2019-03-24T15:01:37.958Z,1.87
2019-03-24T15:04:10.792Z,1.90
2019-03-24T15:06:40.820Z,2.00
2019-03-24T15:09:17.141Z,1.97
2019-03-24T15:11:49.242Z,2.17
2019-03-24T15:14:19.116Z,2.30
2019-03-24T15:16:49.021Z,2.10
2019-03-24T15:19:18.911Z,2.17
2019-03-24T15:21:48.777Z,2.00
2019-03-24T15:24:18.693Z,1.93
2019-03-24T15:26:48.776Z,2.03
2019-03-24T15:29:20.601Z,1.70
2019-03-24T15:31:50.472Z,2.33
2019-03-24T15:34:20.477Z,1.60
2019-03-24T15:36:50.875Z,2.10
2019-03-24T15:39:30.990Z,1.83
2019-03-24T15:42:01.248Z,1.77
2019-03-24T15:44:31.145Z,2.07
2019-03-24T15:47:01.113Z,2.23
2019-03-24T15:49:31.173Z,2.43
2019-03-24T15:52:02.225Z,2.40
2019-03-24T15:54:33.333Z,2.00
2019-03-24T15:57:03.221Z,2.10
2019-03-24T15:59:39.248Z,2.33
2019-03-24T16:02:09.206Z,2.50
2019-03-24T16:04:39.068Z,2.77
2019-03-24T16:07:09.097Z,2.90
2019-03-24T16:09:45.087Z,2.43
2019-03-24T16:12:16.193Z,2.67
2019-03-24T16:14:48.349Z,2.60
2019-03-24T16:17:22.292Z,2.40
2019-03-24T16:19:59.152Z,3.53
2019-03-24T16:22:29.001Z,2.37
2019-03-24T16:24:58.889Z,3.13
2019-03-24T16:27:35.762Z,3.57
2019-03-24T16:30:07.383Z,3.13
2019-03-24T16:32:38.388Z,3.00
2019-03-24T16:35:10.453Z,2.50
2019-03-24T16:37:40.409Z,2.27
2019-03-24T16:40:11.618Z,1.57
2019-03-24T16:42:41.438Z,1.83
2019-03-24T16:45:11.606Z,2.10
2019-03-24T16:48:02.154Z,1.97
2019-03-24T16:50:32.103Z,1.67
2019-03-24T16:53:01.942Z,2.23
2019-03-24T16:55:42.552Z,1.47
2019-03-24T16:58:12.457Z,1.70
2019-03-24T17:00:42.429Z,1.60
2019-03-24T17:03:12.322Z,1.73
2019-03-24T17:05:42.153Z,1.80
2019-03-24T17:08:12.167Z,1.70
2019-03-24T17:10:42.067Z,1.60
2019-03-24T17:13:11.932Z,1.60
2019-03-24T17:15:41.940Z,1.63
2019-03-24T17:18:13.125Z,1.80
2019-03-24T17:20:44.967Z,1.87
2019-03-24T17:23:14.882Z,2.07
2019-03-24T17:25:44.856Z,2.03
2019-03-24T17:28:14.692Z,1.97
2019-03-24T17:30:50.390Z,1.93
2019-03-24T17:33:20.349Z,1.97
2019-03-24T17:35:50.305Z,1.87
2019-03-24T17:38:20.110Z,2.20
2019-03-24T17:40:50.059Z,1.70
2019-03-24T17:43:19.782Z,2.20
2019-03-24T17:45:50.858Z,2.43
2019-03-24T17:48:28.912Z,2.00
2019-03-24T17:50:59.971Z,2.43
2019-03-24T17:53:29.863Z,2.40
2019-03-24T17:56:03.939Z,2.20
2019-03-24T17:58:33.863Z,2.30
2019-03-24T18:01:03.779Z,2.20
2019-03-24T18:03:34.149Z,2.70
2019-03-24T18:06:05.194Z,2.73
2019-03-24T18:08:35.114Z,2.37
2019-03-24T18:11:14.576Z,2.87
2019-03-24T18:13:51.266Z,2.63
2019-03-24T18:16:21.280Z,2.03
2019-03-24T18:19:00.115Z,2.33
2019-03-24T18:21:32.147Z,2.57
2019-03-24T18:24:02.011Z,2.30
2019-03-24T18:26:32.301Z,2.27
2019-03-24T18:29:02.302Z,2.53
2019-03-24T18:31:32.236Z,2.40
2019-03-24T18:34:02.097Z,2.67
2019-03-24T18:36:32.108Z,3.23
2019-03-24T18:39:02.032Z,3.50
2019-03-24T18:41:38.040Z,3.50
2019-03-24T18:44:07.970Z,3.30
2019-03-24T18:46:39.987Z,3.57
2019-03-24T18:49:09.870Z,3.07
2019-03-24T18:51:39.780Z,3.23
2019-03-24T18:54:09.605Z,3.27
2019-03-24T18:56:40.561Z,3.30
2019-03-24T18:59:10.647Z,3.80
2019-03-24T19:01:41.645Z,3.63
2019-03-24T19:04:20.536Z,3.80
2019-03-24T19:10:07.757Z,3.73
2019-03-24T19:12:41.450Z,4.13
2019-03-24T19:15:13.233Z,4.80
2019-03-24T19:17:43.216Z,5.77
2019-03-24T19:20:13.466Z,5.73
2019-03-24T19:22:43.410Z,4.63
2019-03-24T19:25:15.614Z,4.57
2019-03-24T19:27:45.744Z,3.90
2019-03-24T19:30:16.821Z,4.07
2019-03-24T19:32:46.926Z,3.90
2019-03-24T19:35:18.712Z,4.30
2019-03-24T19:37:49.518Z,3.90
2019-03-24T19:40:29.440Z,3.47
2019-03-24T19:43:04.827Z,3.87
2019-03-24T19:45:34.587Z,3.60
2019-03-24T19:48:05.891Z,3.70
2019-03-24T19:50:37.762Z,3.47
2019-03-24T19:53:13.585Z,3.53
2019-03-24T19:55:43.635Z,3.53
2019-03-24T19:58:16.651Z,3.63
2019-03-24T20:00:46.595Z,4.17
2019-03-24T20:03:16.451Z,4.07
2019-03-24T20:05:46.459Z,4.10
2019-03-24T20:08:21.745Z,4.47
2019-03-24T20:10:51.597Z,4.73
2019-03-24T20:13:21.439Z,4.43
2019-03-24T20:15:51.425Z,5.60
2019-03-24T20:18:21.277Z,5.33
2019-03-24T20:20:52.233Z,4.30
2019-03-24T20:23:22.437Z,4.43
2019-03-24T20:25:52.243Z,5.07
2019-03-24T20:28:22.189Z,5.20
2019-03-24T20:30:52.245Z,5.40
2019-03-24T20:33:28.136Z,4.30
2019-03-24T20:36:05.983Z,3.67
2019-03-24T20:38:36.009Z,3.77
2019-03-24T20:41:16.596Z,4.20
2019-03-24T20:43:52.386Z,3.87
2019-03-24T20:46:22.349Z,4.00
2019-03-24T20:48:55.642Z,4.60
2019-03-24T20:51:30.724Z,4.10
2019-03-24T20:54:01.485Z,4.80
2019-03-24T20:56:31.772Z,4.13
2019-03-24T20:59:04.471Z,4.03
2019-03-24T21:01:44.390Z,4.27
2019-03-24T21:04:14.353Z,3.80
2019-03-24T21:06:48.317Z,4.87
2019-03-24T21:09:19.026Z,4.47
2019-03-24T21:11:48.998Z,4.13
2019-03-24T21:14:18.725Z,4.50
2019-03-24T21:16:50.766Z,4.50
2019-03-24T21:19:26.515Z,4.67
2019-03-24T21:21:57.659Z,4.63
2019-03-24T21:24:27.506Z,4.47
2019-03-24T21:26:57.400Z,4.27
2019-03-24T21:29:34.350Z,4.53
2019-03-24T21:32:04.248Z,4.53
2019-03-24T21:34:34.219Z,4.60
2019-03-24T21:37:04.902Z,4.53
2019-03-24T21:39:34.822Z,4.53
2019-03-24T21:42:04.674Z,4.87
2019-03-24T21:44:34.667Z,4.50
2019-03-24T21:47:04.519Z,4.13
2019-03-24T21:49:40.260Z,4.30
2019-03-24T21:52:19.146Z,4.07
2019-03-24T21:54:49.034Z,4.43
2019-03-24T21:57:24.746Z,3.77
2019-03-24T21:59:58.739Z,3.80
2019-03-24T22:02:30.646Z,4.80
2019-03-24T22:05:00.645Z,3.97
2019-03-24T22:07:30.555Z,4.00
2019-03-24T22:10:02.549Z,3.80
2019-03-24T22:12:38.507Z,4.13
2019-03-24T22:15:09.126Z,4.87
2019-03-24T22:17:42.512Z,4.17
2019-03-24T22:20:12.513Z,4.50
2019-03-24T22:22:53.354Z,4.43
2019-03-24T22:25:23.297Z,4.67
2019-03-24T22:27:53.140Z,4.70
2019-03-24T22:30:23.174Z,4.12
2019-03-24T22:32:59.629Z,4.60
2019-03-24T22:35:29.553Z,4.67
2019-03-24T22:37:59.349Z,3.97
2019-03-24T22:40:33.437Z,4.30
2019-03-24T22:43:03.318Z,4.70
2019-03-24T22:45:33.240Z,4.40
2019-03-24T22:48:03.169Z,4.07
2019-03-24T22:50:33.069Z,3.93
2019-03-24T22:53:02.947Z,4.60
2019-03-24T22:55:39.097Z,3.97
2019-03-24T22:58:08.907Z,4.07
2019-03-24T23:00:56.879Z,4.20
2019-03-24T23:03:29.747Z,3.73
2019-03-24T23:05:59.581Z,4.70
2019-03-24T23:08:45.370Z,3.73
2019-03-24T23:11:15.503Z,3.90
2019-03-24T23:13:45.348Z,4.20
2019-03-24T23:16:22.315Z,4.73
2019-03-24T23:18:54.146Z,4.67
2019-03-24T23:21:24.081Z,4.67
2019-03-24T23:23:56.260Z,4.80
2019-03-24T23:26:29.203Z,4.80
2019-03-24T23:28:59.097Z,4.93
2019-03-24T23:31:31.161Z,4.70
2019-03-24T23:34:01.037Z,5.23
2019-03-24T23:36:30.916Z,4.70
2019-03-24T23:39:05.746Z,4.63
2019-03-24T23:41:43.022Z,4.60
2019-03-24T23:44:12.945Z,4.53
2019-03-24T23:46:43.742Z,4.30
2019-03-24T23:49:13.670Z,4.40
2019-03-24T23:51:43.558Z,3.77
2019-03-24T23:54:13.438Z,4.47
2019-03-24T23:56:43.486Z,4.43
2019-03-24T23:59:13.275Z,4.00
